createdAt,value
2018-12-14T00:00:08.696Z,87.28
2018-12-14T00:01:08.659Z,87.28
2018-12-14T00:02:08.676Z,87.04
2018-12-14T00:03:08.640Z,86.72
2018-12-14T00:04:08.627Z,86.61
2018-12-14T00:05:08.617Z,86.20
2018-12-14T00:06:08.639Z,86.76
2018-12-14T00:07:08.603Z,86.55
2018-12-14T00:08:08.583Z,86.45
2018-12-14T00:09:08.573Z,86.55
2018-12-14T00:10:08.568Z,86.66
2018-12-14T00:11:08.575Z,86.24
2018-12-14T00:12:08.563Z,86.66
2018-12-14T00:13:08.583Z,86.72
2018-12-14T00:14:08.533Z,86.87
2018-12-14T00:15:08.518Z,87.18
2018-12-14T00:16:08.560Z,87.45
2018-12-14T00:17:08.504Z,86.76
2018-12-14T00:18:08.494Z,86.35
2018-12-14T00:19:08.474Z,86.61
2018-12-14T00:20:08.459Z,86.55
2018-12-14T00:21:08.462Z,86.35
2018-12-14T00:22:08.463Z,86.35
2018-12-14T00:23:08.428Z,86.76
2018-12-14T00:24:08.413Z,86.66
2018-12-14T00:25:08.408Z,87.18
2018-12-14T00:26:08.392Z,87.39
2018-12-14T00:27:08.417Z,87.63
2018-12-14T00:28:08.391Z,87.43
2018-12-14T00:29:08.368Z,88.06
2018-12-14T00:30:08.356Z,87.63
2018-12-14T00:31:08.342Z,87.60
2018-12-14T00:32:08.358Z,87.91
2018-12-14T00:33:08.323Z,87.39
2018-12-14T00:34:08.319Z,87.14
2018-12-14T00:35:08.310Z,87.39
2018-12-14T00:36:08.289Z,87.28
2018-12-14T00:37:08.286Z,87.04
2018-12-14T00:38:08.301Z,86.72
2018-12-14T00:39:08.262Z,86.45
2018-12-14T00:40:08.246Z,86.87
2018-12-14T00:41:08.236Z,86.83
2018-12-14T00:42:08.224Z,87.28
2018-12-14T00:43:08.275Z,87.39
2018-12-14T00:44:08.200Z,87.95
2018-12-14T00:45:08.194Z,87.74
2018-12-14T00:46:08.189Z,87.60
2018-12-14T00:47:08.192Z,87.74
2018-12-14T00:48:08.202Z,87.91
2018-12-14T00:49:08.168Z,87.39
2018-12-14T00:50:08.134Z,87.43
2018-12-14T00:51:08.138Z,87.60
2018-12-14T00:52:08.145Z,87.95
2018-12-14T00:53:08.116Z,87.95
2018-12-14T00:54:08.115Z,87.95
2018-12-14T00:55:08.089Z,88.06
2018-12-14T00:56:08.091Z,87.63
2018-12-14T00:57:08.079Z,87.63
2018-12-14T00:58:08.074Z,87.84
2018-12-14T00:59:08.069Z,87.53
2018-12-14T01:00:08.058Z,88.26
2018-12-14T01:01:08.029Z,88.57
2018-12-14T01:02:08.008Z,88.06
2018-12-14T01:03:08.005Z,87.95
2018-12-14T01:04:08.020Z,87.95
2018-12-14T01:05:07.985Z,87.84
2018-12-14T01:06:07.979Z,87.70
2018-12-14T01:07:07.960Z,87.60
2018-12-14T01:08:07.965Z,87.91
2018-12-14T01:09:07.955Z,87.49
2018-12-14T01:10:07.955Z,87.28
2018-12-14T01:11:07.924Z,87.07
2018-12-14T01:12:07.904Z,87.49
2018-12-14T01:13:07.897Z,87.12
2018-12-14T01:14:07.881Z,87.22
2018-12-14T01:15:07.915Z,87.63
2018-12-14T01:16:07.882Z,87.84
2018-12-14T01:17:07.857Z,87.95
2018-12-14T01:18:07.874Z,87.74
2018-12-14T01:19:07.828Z,87.53
2018-12-14T01:20:07.851Z,87.60
2018-12-14T01:21:07.805Z,87.60
2018-12-14T01:22:07.796Z,87.43
2018-12-14T01:23:07.815Z,87.43
2018-12-14T01:24:07.781Z,87.49
2018-12-14T01:25:07.763Z,87.07
2018-12-14T01:26:07.779Z,86.24
2018-12-14T01:27:07.750Z,86.24
2018-12-14T01:28:07.743Z,86.35
2018-12-14T01:29:07.733Z,86.35
2018-12-14T01:30:07.726Z,86.38
2018-12-14T01:31:07.720Z,86.87
2018-12-14T01:32:07.716Z,86.87
2018-12-14T01:33:07.695Z,86.61
2018-12-14T01:34:07.672Z,86.24
2018-12-14T01:35:07.668Z,85.78
2018-12-14T01:36:07.698Z,85.68
2018-12-14T01:37:07.638Z,85.99
2018-12-14T01:38:07.684Z,86.24
2018-12-14T01:39:07.621Z,86.55
2018-12-14T01:40:07.606Z,87.18
2018-12-14T01:41:07.647Z,87.18
2018-12-14T01:42:07.589Z,87.70
2018-12-14T01:43:07.582Z,87.18
2018-12-14T01:44:07.559Z,87.18
2018-12-14T01:45:07.585Z,87.28
2018-12-14T01:46:07.547Z,87.28
2018-12-14T01:47:07.577Z,86.87
2018-12-14T01:48:07.531Z,87.39
2018-12-14T01:49:07.548Z,87.28
2018-12-14T01:50:07.500Z,87.28
2018-12-14T01:51:07.493Z,87.07
2018-12-14T01:52:07.506Z,86.97
2018-12-14T01:53:07.518Z,87.49
2018-12-14T01:54:07.460Z,87.07
2018-12-14T01:55:07.447Z,87.66
2018-12-14T01:56:07.444Z,87.04
2018-12-14T01:57:07.451Z,87.28
2018-12-14T01:58:07.433Z,86.61
2018-12-14T01:59:07.411Z,86.13
2018-12-14T02:00:07.389Z,86.35
2018-12-14T02:01:07.412Z,86.10
2018-12-14T02:02:07.374Z,86.45
2018-12-14T02:03:07.433Z,86.35
2018-12-14T02:04:07.387Z,85.99
2018-12-14T02:05:07.366Z,86.45
2018-12-14T02:06:07.336Z,86.55
2018-12-14T02:07:07.314Z,86.20
2018-12-14T02:08:07.350Z,86.24
2018-12-14T02:09:07.312Z,87.60
2018-12-14T02:10:07.304Z,86.97
2018-12-14T02:11:07.285Z,86.55
2018-12-14T02:12:11.207Z,86.35
2018-12-14T02:13:07.290Z,86.41
2018-12-14T02:14:07.718Z,86.55
2018-12-14T02:15:07.244Z,86.30
2018-12-14T02:16:07.234Z,86.10
2018-12-14T02:17:07.246Z,85.78
2018-12-14T02:18:07.207Z,85.78
2018-12-14T02:19:07.265Z,85.47
2018-12-14T02:20:07.182Z,85.47
2018-12-14T02:21:07.209Z,85.78
2018-12-14T02:22:07.155Z,85.82
2018-12-14T02:23:07.155Z,85.93
2018-12-14T02:24:07.151Z,86.24
2018-12-14T02:25:07.127Z,86.76
2018-12-14T02:26:07.119Z,86.66
2018-12-14T02:27:07.101Z,86.30
2018-12-14T02:28:07.097Z,85.99
2018-12-14T02:29:07.131Z,85.99
2018-12-14T02:30:07.073Z,85.36
2018-12-14T02:31:07.060Z,85.58
2018-12-14T02:32:07.051Z,85.53
2018-12-14T02:33:07.034Z,85.53
2018-12-14T02:34:07.028Z,85.68
2018-12-14T02:35:07.046Z,85.78
2018-12-14T02:36:07.038Z,85.22
2018-12-14T02:37:06.996Z,84.70
2018-12-14T02:38:07.025Z,84.74
2018-12-14T02:39:07.033Z,84.74
2018-12-14T02:40:06.996Z,84.12
2018-12-14T02:41:06.952Z,84.08
2018-12-14T02:42:07.004Z,84.18
2018-12-14T02:43:06.952Z,83.87
2018-12-14T02:44:06.926Z,84.28
2018-12-14T02:45:06.969Z,84.50
2018-12-14T02:46:06.898Z,84.70
2018-12-14T02:47:06.893Z,84.70
2018-12-14T02:48:06.885Z,84.70
2018-12-14T02:49:06.866Z,84.18
2018-12-14T02:50:06.886Z,84.70
2018-12-14T02:51:06.856Z,84.50
2018-12-14T02:52:06.833Z,84.81
2018-12-14T02:53:06.839Z,84.84
2018-12-14T02:54:06.841Z,84.84
2018-12-14T02:55:06.805Z,85.36
2018-12-14T02:56:06.814Z,85.36
2018-12-14T02:57:06.806Z,86.03
2018-12-14T02:58:06.775Z,86.55
2018-12-14T02:59:06.762Z,87.18
2018-12-14T03:00:06.758Z,87.07
2018-12-14T03:01:06.782Z,86.76
2018-12-14T03:02:06.735Z,86.61
2018-12-14T03:03:06.724Z,86.35
2018-12-14T03:04:06.707Z,86.55
2018-12-14T03:05:06.696Z,86.35
2018-12-14T03:06:06.722Z,86.35
2018-12-14T03:07:06.709Z,86.45
2018-12-14T03:08:06.678Z,86.45
2018-12-14T03:09:06.676Z,86.03
2018-12-14T03:10:06.640Z,86.03
2018-12-14T03:11:06.632Z,86.20
2018-12-14T03:12:06.643Z,85.16
2018-12-14T03:13:06.611Z,86.03
2018-12-14T03:14:06.606Z,85.99
2018-12-14T03:15:06.597Z,86.10
2018-12-14T03:16:06.578Z,85.89
2018-12-14T03:17:06.598Z,85.68
2018-12-14T03:18:06.551Z,85.82
2018-12-14T03:19:06.565Z,85.82
2018-12-14T03:20:06.554Z,86.18
2018-12-14T03:21:06.549Z,87.32
2018-12-14T03:22:06.563Z,87.12
2018-12-14T03:23:06.526Z,87.43
2018-12-14T03:24:06.512Z,87.22
2018-12-14T03:25:06.515Z,87.70
2018-12-14T03:26:06.472Z,87.49
2018-12-14T03:27:06.459Z,86.35
2018-12-14T03:28:06.470Z,86.35
2018-12-14T03:29:06.482Z,86.45
2018-12-14T03:30:06.441Z,86.13
2018-12-14T03:31:06.421Z,85.93
2018-12-14T03:32:06.412Z,86.13
2018-12-14T03:33:06.446Z,85.72
2018-12-14T03:34:06.385Z,85.72
2018-12-14T03:35:06.384Z,85.72
2018-12-14T03:36:06.413Z,85.72
2018-12-14T03:37:06.385Z,85.72
2018-12-14T03:38:06.359Z,85.68
2018-12-14T03:39:06.346Z,85.61
2018-12-14T03:40:06.330Z,85.72
2018-12-14T03:41:06.321Z,85.72
2018-12-14T03:42:06.315Z,86.24
2018-12-14T03:43:06.328Z,86.13
2018-12-14T03:44:06.308Z,86.45
2018-12-14T03:45:06.273Z,86.13
2018-12-14T03:46:06.272Z,85.93
2018-12-14T03:47:06.248Z,86.13
2018-12-14T03:48:06.239Z,86.03
2018-12-14T03:49:06.261Z,86.13
2018-12-14T03:50:06.223Z,85.72
2018-12-14T03:51:06.204Z,85.58
2018-12-14T03:52:06.197Z,85.51
2018-12-14T03:53:06.193Z,85.41
2018-12-14T03:54:06.208Z,85.51
2018-12-14T03:55:06.588Z,85.51
2018-12-14T03:56:06.179Z,85.51
2018-12-14T03:57:06.161Z,85.41
2018-12-14T03:58:06.158Z,85.65
2018-12-14T03:59:06.155Z,85.82
2018-12-14T04:00:06.132Z,85.72
2018-12-14T04:01:06.144Z,85.41
2018-12-14T04:02:06.099Z,85.41
2018-12-14T04:03:06.086Z,85.51
2018-12-14T04:04:06.076Z,85.72
2018-12-14T04:05:06.070Z,85.72
2018-12-14T04:06:06.052Z,85.76
2018-12-14T04:07:06.030Z,86.28
2018-12-14T04:08:06.045Z,85.76
2018-12-14T04:09:06.009Z,86.18
2018-12-14T04:10:06.051Z,85.86
2018-12-14T04:11:06.019Z,86.28
2018-12-14T04:12:05.980Z,86.59
2018-12-14T04:13:05.990Z,86.59
2018-12-14T04:14:05.969Z,87.32
2018-12-14T04:15:06.026Z,87.12
2018-12-14T04:16:05.936Z,87.32
2018-12-14T04:17:05.926Z,87.63
2018-12-14T04:18:05.922Z,87.12
2018-12-14T04:19:05.924Z,86.80
2018-12-14T04:20:05.935Z,87.12
2018-12-14T04:21:05.883Z,86.69
2018-12-14T04:22:05.882Z,86.28
2018-12-14T04:23:05.878Z,86.28
2018-12-14T04:24:05.865Z,86.24
2018-12-14T04:25:05.880Z,86.28
2018-12-14T04:26:05.891Z,85.82
2018-12-14T04:27:05.838Z,85.72
2018-12-14T04:28:05.821Z,85.30
2018-12-14T04:29:05.808Z,85.30
2018-12-14T04:30:05.821Z,85.41
2018-12-14T04:31:05.800Z,84.78
2018-12-14T04:32:05.786Z,84.16
2018-12-14T04:33:05.772Z,84.78
2018-12-14T04:34:05.775Z,84.74
2018-12-14T04:35:05.735Z,85.24
2018-12-14T04:36:05.786Z,85.24
2018-12-14T04:37:05.717Z,85.65
2018-12-14T04:38:05.702Z,85.24
2018-12-14T04:39:05.702Z,85.55
2018-12-14T04:40:05.707Z,85.86
2018-12-14T04:41:05.695Z,85.41
2018-12-14T04:42:05.693Z,85.03
2018-12-14T04:43:05.668Z,85.03
2018-12-14T04:44:05.639Z,85.76
2018-12-14T04:45:05.636Z,85.61
2018-12-14T04:46:05.638Z,85.30
2018-12-14T04:47:05.635Z,85.10
2018-12-14T04:48:05.603Z,84.36
2018-12-14T04:49:05.597Z,84.26
2018-12-14T04:50:05.577Z,84.64
2018-12-14T04:51:05.570Z,84.50
2018-12-14T04:52:05.554Z,85.41
2018-12-14T04:53:05.576Z,84.78
2018-12-14T04:54:05.563Z,84.67
2018-12-14T04:55:05.519Z,85.41
2018-12-14T04:56:05.513Z,85.24
2018-12-14T04:57:05.504Z,85.65
2018-12-14T04:58:05.544Z,85.90
2018-12-14T04:59:05.492Z,86.11
2018-12-14T05:00:05.505Z,86.32
2018-12-14T05:01:05.457Z,86.53
2018-12-14T05:02:05.456Z,85.90
2018-12-14T05:03:05.463Z,85.90
2018-12-14T05:04:05.429Z,86.99
2018-12-14T05:05:05.413Z,87.47
2018-12-14T05:06:05.434Z,87.30
2018-12-14T05:07:05.412Z,87.61
2018-12-14T05:08:05.389Z,87.71
2018-12-14T05:09:05.393Z,87.40
2018-12-14T05:10:05.377Z,87.30
2018-12-14T05:11:05.355Z,87.57
2018-12-14T05:12:05.347Z,87.26
2018-12-14T05:13:05.325Z,86.94
2018-12-14T05:14:05.333Z,86.43
2018-12-14T05:15:05.333Z,86.11
2018-12-14T05:16:05.303Z,86.00
2018-12-14T05:17:05.295Z,85.69
2018-12-14T05:18:05.293Z,85.76
2018-12-14T05:19:05.308Z,85.55
2018-12-14T05:20:05.263Z,85.65
2018-12-14T05:21:05.269Z,85.65
2018-12-14T05:22:05.237Z,85.80
2018-12-14T05:23:05.236Z,85.76
2018-12-14T05:24:05.249Z,85.49
2018-12-14T05:25:05.250Z,85.90
2018-12-14T05:26:05.201Z,86.21
2018-12-14T05:27:05.181Z,85.65
2018-12-14T05:28:05.170Z,85.34
2018-12-14T05:29:05.182Z,85.69
2018-12-14T05:30:05.178Z,85.69
2018-12-14T05:31:05.135Z,85.44
2018-12-14T05:32:05.144Z,85.59
2018-12-14T05:33:05.113Z,85.69
2018-12-14T05:34:05.104Z,86.21
2018-12-14T05:35:05.122Z,86.32
2018-12-14T05:36:05.092Z,86.00
2018-12-14T05:37:05.071Z,86.11
2018-12-14T05:38:05.100Z,86.67
2018-12-14T05:39:06.012Z,87.15
2018-12-14T05:40:05.087Z,87.37
2018-12-14T05:41:05.064Z,86.74
2018-12-14T05:42:05.020Z,86.21
2018-12-14T05:43:05.005Z,85.86
2018-12-14T05:44:05.032Z,85.65
2018-12-14T05:45:04.986Z,85.65
2018-12-14T05:46:05.020Z,85.24
2018-12-14T05:47:04.985Z,85.65
2018-12-14T05:48:04.983Z,85.65
2018-12-14T05:49:04.952Z,85.59
2018-12-14T05:50:04.963Z,85.44
2018-12-14T05:51:04.958Z,85.55
2018-12-14T05:52:04.923Z,85.65
2018-12-14T05:53:04.902Z,85.13
2018-12-14T05:54:04.919Z,85.03
2018-12-14T05:55:04.884Z,85.65
2018-12-14T05:56:04.907Z,85.97
2018-12-14T05:57:04.856Z,84.92
2018-12-14T05:58:04.847Z,85.13
2018-12-14T05:59:04.845Z,85.13
2018-12-14T06:00:04.831Z,84.96
2018-12-14T06:01:04.871Z,85.73
2018-12-14T06:02:04.829Z,86.43
2018-12-14T06:03:04.798Z,86.53
2018-12-14T06:04:04.811Z,86.43
2018-12-14T06:05:04.785Z,86.15
2018-12-14T06:06:04.760Z,86.21
2018-12-14T06:07:04.775Z,86.36
2018-12-14T06:08:04.739Z,86.36
2018-12-14T06:09:04.737Z,87.30
2018-12-14T06:10:04.738Z,86.57
2018-12-14T06:11:04.707Z,87.51
2018-12-14T06:12:04.737Z,87.30
2018-12-14T06:13:09.105Z,86.63
2018-12-14T06:14:04.676Z,86.21
2018-12-14T06:15:04.663Z,86.36
2018-12-14T06:16:04.667Z,86.99
2018-12-14T06:17:04.659Z,87.19
2018-12-14T06:18:04.661Z,87.55
2018-12-14T06:19:04.634Z,87.76
2018-12-14T06:20:04.624Z,87.51
2018-12-14T06:21:04.599Z,87.40
2018-12-14T06:22:04.602Z,87.30
2018-12-14T06:23:04.619Z,86.32
2018-12-14T06:24:04.571Z,86.21
2018-12-14T06:25:04.589Z,86.32
2018-12-14T06:26:04.549Z,85.90
2018-12-14T06:27:04.538Z,86.21
2018-12-14T06:28:04.553Z,86.00
2018-12-14T06:29:04.517Z,85.69
2018-12-14T06:30:04.504Z,85.80
2018-12-14T06:31:04.527Z,85.73
2018-12-14T06:32:04.494Z,86.32
2018-12-14T06:33:04.471Z,86.36
2018-12-14T06:34:04.495Z,86.88
2018-12-14T06:35:04.461Z,86.77
2018-12-14T06:36:04.459Z,86.43
2018-12-14T06:37:04.430Z,85.80
2018-12-14T06:38:04.412Z,86.32
2018-12-14T06:39:04.449Z,86.32
2018-12-14T06:40:04.400Z,85.90
2018-12-14T06:41:04.380Z,85.65
2018-12-14T06:42:04.377Z,85.59
2018-12-14T06:43:04.376Z,85.24
2018-12-14T06:44:04.385Z,85.24
2018-12-14T06:45:04.340Z,85.38
2018-12-14T06:46:04.344Z,85.17
2018-12-14T06:47:04.323Z,85.59
2018-12-14T06:48:04.314Z,85.59
2018-12-14T06:49:04.335Z,86.00
2018-12-14T06:50:04.330Z,85.80
2018-12-14T06:51:04.285Z,85.63
2018-12-14T06:52:04.284Z,85.94
2018-12-14T06:53:04.257Z,86.15
2018-12-14T06:54:04.256Z,85.90
2018-12-14T06:55:04.258Z,85.90
2018-12-14T06:56:04.262Z,85.59
2018-12-14T06:57:04.221Z,85.69
2018-12-14T06:58:04.217Z,85.44
2018-12-14T06:59:04.206Z,85.80
2018-12-14T07:00:04.224Z,85.86
2018-12-14T07:01:04.177Z,85.24
2018-12-14T07:02:04.157Z,85.03
2018-12-14T07:03:04.152Z,85.13
2018-12-14T07:04:04.145Z,85.13
2018-12-14T07:05:04.171Z,85.13
2018-12-14T07:06:04.155Z,85.13
2018-12-14T07:07:04.353Z,85.80
2018-12-14T07:08:04.111Z,85.34
2018-12-14T07:09:04.105Z,85.59
2018-12-14T07:10:04.108Z,85.65
2018-12-14T07:11:04.089Z,85.65
2018-12-14T07:12:04.052Z,85.55
2018-12-14T07:13:04.053Z,85.17
2018-12-14T07:14:04.045Z,85.24
2018-12-14T07:15:04.036Z,84.96
2018-12-14T07:16:04.019Z,85.34
2018-12-14T07:17:04.055Z,85.27
2018-12-14T07:18:03.996Z,85.13
2018-12-14T07:19:03.982Z,85.38
2018-12-14T07:20:03.979Z,85.17
2018-12-14T07:21:03.961Z,85.44
2018-12-14T07:22:03.992Z,85.34
2018-12-14T07:23:03.948Z,85.38
2018-12-14T07:24:03.940Z,85.06
2018-12-14T07:25:04.572Z,85.69
2018-12-14T07:26:03.902Z,85.69
2018-12-14T07:27:03.957Z,85.59
2018-12-14T07:28:03.919Z,85.80
2018-12-14T07:29:03.872Z,85.34
2018-12-14T07:30:03.874Z,85.34
2018-12-14T07:31:03.847Z,84.82
2018-12-14T07:32:03.856Z,84.50
2018-12-14T07:33:03.853Z,85.03
2018-12-14T07:34:03.831Z,85.44
2018-12-14T07:35:03.855Z,85.34
2018-12-14T07:36:03.800Z,85.34
2018-12-14T07:37:03.796Z,84.40
2018-12-14T07:38:03.796Z,84.30
2018-12-14T07:39:03.777Z,84.30
2018-12-14T07:40:03.771Z,85.34
2018-12-14T07:41:03.747Z,84.36
2018-12-14T07:42:03.802Z,84.40
2018-12-14T07:43:03.754Z,84.16
2018-12-14T07:44:03.728Z,84.19
2018-12-14T07:45:03.716Z,85.55
2018-12-14T07:46:03.691Z,84.09
2018-12-14T07:47:03.677Z,84.50
2018-12-14T07:48:03.714Z,84.09
2018-12-14T07:49:03.688Z,84.40
2018-12-14T07:50:03.642Z,84.61
2018-12-14T07:51:03.635Z,84.19
2018-12-14T07:52:03.658Z,84.19
2018-12-14T07:53:09.091Z,85.49
2018-12-14T07:54:04.643Z,85.80
2018-12-14T07:55:03.609Z,85.55
2018-12-14T07:56:03.597Z,85.55
2018-12-14T07:57:03.606Z,85.03
2018-12-14T07:58:03.566Z,85.24
2018-12-14T07:59:03.564Z,85.24
2018-12-14T08:00:03.537Z,85.13
2018-12-14T08:01:03.571Z,84.82
2018-12-14T08:02:03.518Z,85.34
2018-12-14T08:03:03.533Z,85.03
2018-12-14T08:04:03.530Z,85.03
2018-12-14T08:05:03.483Z,85.34
2018-12-14T08:06:03.471Z,85.24
2018-12-14T08:07:03.484Z,85.24
2018-12-14T08:08:03.457Z,85.86
2018-12-14T08:09:03.441Z,85.59
2018-12-14T08:10:03.479Z,85.65
2018-12-14T08:11:03.420Z,85.76
2018-12-14T08:12:03.435Z,84.57
2018-12-14T08:13:03.401Z,84.16
2018-12-14T08:14:03.390Z,84.05
2018-12-14T08:15:03.400Z,84.67
2018-12-14T08:16:03.367Z,84.30
2018-12-14T08:17:03.361Z,85.24
2018-12-14T08:18:03.370Z,84.65
2018-12-14T08:19:03.340Z,85.44
2018-12-14T08:20:03.348Z,85.44
2018-12-14T08:21:03.313Z,85.65
2018-12-14T08:22:03.304Z,85.65
2018-12-14T08:23:03.297Z,85.34
2018-12-14T08:24:03.279Z,85.34
2018-12-14T08:25:03.276Z,85.34
2018-12-14T08:26:03.276Z,84.67
2018-12-14T08:27:03.279Z,84.19
2018-12-14T08:28:03.287Z,84.61
2018-12-14T08:29:03.234Z,85.34
2018-12-14T08:30:03.234Z,84.82
2018-12-14T08:31:03.209Z,85.13
2018-12-14T08:32:03.192Z,84.72
2018-12-14T08:33:03.203Z,85.13
2018-12-14T08:34:03.193Z,85.03
2018-12-14T08:35:03.163Z,85.24
2018-12-14T08:36:03.166Z,84.30
2018-12-14T08:37:03.154Z,85.13
2018-12-14T08:38:03.194Z,85.13
2018-12-14T08:39:03.144Z,85.20
2018-12-14T08:40:03.120Z,84.05
2018-12-14T08:41:03.098Z,83.74
2018-12-14T08:42:03.085Z,83.42
2018-12-14T08:43:03.084Z,83.63
2018-12-14T08:44:03.082Z,83.63
2018-12-14T08:45:03.067Z,83.22
2018-12-14T08:46:03.043Z,83.22
2018-12-14T08:47:03.032Z,83.95
2018-12-14T08:48:03.027Z,83.28
2018-12-14T08:49:03.039Z,83.63
2018-12-14T08:50:03.038Z,83.74
2018-12-14T08:51:03.000Z,83.32
2018-12-14T08:52:02.982Z,83.95
2018-12-14T08:53:02.971Z,83.53
2018-12-14T08:54:03.016Z,83.49
2018-12-14T08:55:02.947Z,83.59
2018-12-14T08:56:02.944Z,83.49
2018-12-14T08:57:02.941Z,82.97
2018-12-14T08:58:02.922Z,83.45
2018-12-14T08:59:02.946Z,82.10
2018-12-14T09:00:02.916Z,81.99
2018-12-14T09:01:02.891Z,81.62
2018-12-14T09:02:02.874Z,83.70
2018-12-14T09:03:02.872Z,83.53
2018-12-14T09:04:02.854Z,83.74
2018-12-14T09:05:02.863Z,83.63
2018-12-14T09:06:02.842Z,83.63
2018-12-14T09:07:02.825Z,84.19
2018-12-14T09:08:02.831Z,84.78
2018-12-14T09:09:02.803Z,83.74
2018-12-14T09:10:02.783Z,83.18
2018-12-14T09:11:02.817Z,83.01
2018-12-14T09:12:02.772Z,83.70
2018-12-14T09:13:02.786Z,83.70
2018-12-14T09:14:02.751Z,83.74
2018-12-14T09:15:02.762Z,83.42
2018-12-14T09:16:02.719Z,83.01
2018-12-14T09:17:02.763Z,83.11
2018-12-14T09:18:02.703Z,83.01
2018-12-14T09:19:02.737Z,83.07
2018-12-14T09:20:02.729Z,83.18
2018-12-14T09:21:02.680Z,82.97
2018-12-14T09:22:02.714Z,82.28
2018-12-14T09:23:04.142Z,83.32
2018-12-14T09:24:02.646Z,83.53
2018-12-14T09:25:02.624Z,82.90
2018-12-14T09:26:02.632Z,82.97
2018-12-14T09:27:02.619Z,83.53
2018-12-14T09:28:02.640Z,83.63
2018-12-14T09:29:02.594Z,83.32
2018-12-14T09:30:02.585Z,83.32
2018-12-14T09:31:02.608Z,83.28
2018-12-14T09:32:02.549Z,83.74
2018-12-14T09:33:02.553Z,83.63
2018-12-14T09:34:02.536Z,83.74
2018-12-14T09:35:02.515Z,83.63
2018-12-14T09:36:02.514Z,84.05
2018-12-14T09:37:02.498Z,84.67
2018-12-14T09:38:02.517Z,84.72
2018-12-14T09:39:02.481Z,84.05
2018-12-14T09:40:02.479Z,84.26
2018-12-14T09:41:02.491Z,84.16
2018-12-14T09:42:02.439Z,83.95
2018-12-14T09:43:02.442Z,83.39
2018-12-14T09:44:02.445Z,83.49
2018-12-14T09:45:03.303Z,83.28
2018-12-14T09:46:02.421Z,81.72
2018-12-14T09:47:02.390Z,82.34
2018-12-14T09:48:02.384Z,82.03
2018-12-14T09:49:02.388Z,82.03
2018-12-14T09:50:02.381Z,81.82
2018-12-14T09:51:02.354Z,81.82
2018-12-14T09:52:02.365Z,82.80
2018-12-14T09:53:02.329Z,82.28
2018-12-14T09:54:02.365Z,82.59
2018-12-14T09:55:02.307Z,82.59
2018-12-14T09:56:02.297Z,81.96
2018-12-14T09:57:02.285Z,81.96
2018-12-14T09:58:02.297Z,81.86
2018-12-14T09:59:02.276Z,81.96
2018-12-14T10:00:02.271Z,82.48
2018-12-14T10:01:02.237Z,83.53
2018-12-14T10:02:02.252Z,83.74
2018-12-14T10:03:02.282Z,82.59
2018-12-14T10:04:02.201Z,82.28
2018-12-14T10:05:02.200Z,82.48
2018-12-14T10:06:02.184Z,81.76
2018-12-14T10:07:02.179Z,82.28
2018-12-14T10:08:02.195Z,82.55
2018-12-14T10:09:02.148Z,81.51
2018-12-14T10:10:02.147Z,81.20
2018-12-14T10:11:02.145Z,81.20
2018-12-14T10:12:02.156Z,80.92
2018-12-14T10:13:02.111Z,81.55
2018-12-14T10:14:02.112Z,81.51
2018-12-14T10:15:02.093Z,80.88
2018-12-14T10:16:02.074Z,81.20
2018-12-14T10:17:02.090Z,81.41
2018-12-14T10:18:02.085Z,81.30
2018-12-14T10:19:02.065Z,81.30
2018-12-14T10:20:02.045Z,80.78
2018-12-14T10:21:02.070Z,80.88
2018-12-14T10:22:02.041Z,79.94
2018-12-14T10:23:02.012Z,79.74
2018-12-14T10:24:02.056Z,80.16
2018-12-14T10:25:01.983Z,80.57
2018-12-14T10:26:01.976Z,79.74
2018-12-14T10:27:01.954Z,80.19
2018-12-14T10:28:01.957Z,80.30
2018-12-14T10:29:01.956Z,80.82
2018-12-14T10:30:01.961Z,80.61
2018-12-14T10:31:01.925Z,80.82
2018-12-14T10:32:01.919Z,80.71
2018-12-14T10:33:01.920Z,80.92
2018-12-14T10:34:01.903Z,81.09
2018-12-14T10:35:01.875Z,80.36
2018-12-14T10:36:01.897Z,79.63
2018-12-14T10:37:01.865Z,79.63
2018-12-14T10:38:01.859Z,80.19
2018-12-14T10:39:01.898Z,80.65
2018-12-14T10:40:01.836Z,80.85
2018-12-14T10:41:01.819Z,80.89
2018-12-14T10:42:01.802Z,81.16
2018-12-14T10:43:01.804Z,80.96
2018-12-14T10:44:07.249Z,80.96
2018-12-14T10:45:02.779Z,81.06
2018-12-14T10:46:01.750Z,80.89
2018-12-14T10:47:01.748Z,81.10
2018-12-14T10:48:01.726Z,81.27
2018-12-14T10:49:01.754Z,81.10
2018-12-14T10:50:01.710Z,81.27
2018-12-14T10:51:01.703Z,80.96
2018-12-14T10:52:01.695Z,80.96
2018-12-14T10:53:01.685Z,80.85
2018-12-14T10:54:01.707Z,81.06
2018-12-14T10:55:01.663Z,81.02
2018-12-14T10:56:01.641Z,80.82
2018-12-14T10:57:01.726Z,79.88
2018-12-14T10:58:01.636Z,80.40
2018-12-14T10:59:01.645Z,80.51
2018-12-14T11:00:01.611Z,80.82
2018-12-14T11:01:01.591Z,81.45
2018-12-14T11:02:01.624Z,81.13
2018-12-14T11:03:01.574Z,80.82
2018-12-14T11:04:01.584Z,80.40
2018-12-14T11:05:01.552Z,80.61
2018-12-14T11:06:01.583Z,80.40
2018-12-14T11:07:01.526Z,80.05
2018-12-14T11:08:01.515Z,79.57
2018-12-14T11:09:01.575Z,79.74
2018-12-14T11:10:01.499Z,79.98
2018-12-14T11:11:01.480Z,79.98
2018-12-14T11:12:01.479Z,79.98
2018-12-14T11:13:01.459Z,79.74
2018-12-14T11:14:01.501Z,80.26
2018-12-14T11:15:01.479Z,79.94
2018-12-14T11:16:01.435Z,80.57
2018-12-14T11:17:01.420Z,80.51
2018-12-14T11:18:01.451Z,80.26
2018-12-14T11:19:01.445Z,79.63
2018-12-14T11:20:01.411Z,80.05
2018-12-14T11:21:01.373Z,79.94
2018-12-14T11:22:01.365Z,80.61
2018-12-14T11:23:01.355Z,80.68
2018-12-14T11:24:01.352Z,80.99
2018-12-14T11:25:01.365Z,80.78
2018-12-14T11:26:01.319Z,80.78
2018-12-14T11:27:01.316Z,80.68
2018-12-14T11:28:01.314Z,79.84
2018-12-14T11:29:01.293Z,79.22
2018-12-14T11:30:01.273Z,79.84
2018-12-14T11:31:01.294Z,79.74
2018-12-14T11:32:01.258Z,80.16
2018-12-14T11:33:01.263Z,79.63
2018-12-14T11:34:01.247Z,79.74
2018-12-14T11:35:01.224Z,78.91
2018-12-14T11:36:01.229Z,79.63
2018-12-14T11:37:01.206Z,79.74
2018-12-14T11:38:01.216Z,79.74
2018-12-14T11:39:01.195Z,79.70
2018-12-14T11:40:01.183Z,78.49
2018-12-14T11:41:01.203Z,79.63
2018-12-14T11:42:01.157Z,79.53
2018-12-14T11:43:01.157Z,80.05
2018-12-14T11:44:01.135Z,80.09
2018-12-14T11:45:01.130Z,80.19
2018-12-14T11:46:01.145Z,80.68
2018-12-14T11:47:01.139Z,80.30
2018-12-14T11:48:01.092Z,80.47
2018-12-14T11:49:01.074Z,80.47
2018-12-14T11:50:01.065Z,80.57
2018-12-14T11:51:01.054Z,80.78
2018-12-14T11:52:01.075Z,80.92
2018-12-14T11:53:01.063Z,81.02
2018-12-14T11:54:01.017Z,80.99
2018-12-14T11:55:01.011Z,80.71
2018-12-14T11:56:00.997Z,80.82
2018-12-14T11:57:01.037Z,80.82
2018-12-14T11:58:00.982Z,80.68
2018-12-14T11:59:00.971Z,80.16
2018-12-14T12:00:00.966Z,81.09
2018-12-14T12:01:00.945Z,81.02
2018-12-14T12:02:00.937Z,80.82
2018-12-14T12:03:00.965Z,80.82
2018-12-14T12:04:00.910Z,81.02
2018-12-14T12:05:00.920Z,80.68
2018-12-14T12:06:00.899Z,80.26
2018-12-14T12:07:00.911Z,80.36
2018-12-14T12:08:00.891Z,79.94
2018-12-14T12:09:00.899Z,80.36
2018-12-14T12:10:00.870Z,80.68
2018-12-14T12:11:00.846Z,80.92
2018-12-14T12:12:00.828Z,81.13
2018-12-14T12:13:00.900Z,81.45
2018-12-14T12:14:00.824Z,81.20
2018-12-14T12:15:00.805Z,80.68
2018-12-14T12:16:00.785Z,80.47
2018-12-14T12:17:00.789Z,80.71
2018-12-14T12:18:00.770Z,80.82
2018-12-14T12:19:00.783Z,80.82
2018-12-14T12:20:00.753Z,80.82
2018-12-14T12:21:00.734Z,81.02
2018-12-14T12:22:00.716Z,81.02
2018-12-14T12:23:00.709Z,81.55
2018-12-14T12:24:00.738Z,81.45
2018-12-14T12:25:00.691Z,80.99
2018-12-14T12:26:00.688Z,81.02
2018-12-14T12:27:00.703Z,81.09
2018-12-14T12:28:00.664Z,80.92
2018-12-14T12:29:00.713Z,80.88
2018-12-14T12:30:00.656Z,81.20
2018-12-14T12:31:00.620Z,81.09
2018-12-14T12:32:00.625Z,80.33
2018-12-14T12:33:00.636Z,80.16
2018-12-14T12:34:00.599Z,80.26
2018-12-14T12:35:00.609Z,80.68
2018-12-14T12:36:00.618Z,80.99
2018-12-14T12:37:00.564Z,80.78
2018-12-14T12:38:00.544Z,80.78
2018-12-14T12:39:00.535Z,80.68
2018-12-14T12:40:00.542Z,80.57
2018-12-14T12:41:00.510Z,80.85
2018-12-14T12:42:00.529Z,81.20
2018-12-14T12:43:00.505Z,80.88
2018-12-14T12:44:00.482Z,80.54
2018-12-14T12:45:00.541Z,79.74
2018-12-14T12:46:00.459Z,80.05
2018-12-14T12:47:00.450Z,79.98
2018-12-14T12:48:00.444Z,80.05
2018-12-14T12:49:00.436Z,80.09
2018-12-14T12:50:00.419Z,80.19
2018-12-14T12:51:03.230Z,80.09
2018-12-14T12:52:00.407Z,80.19